N3368K OEDF-OKDI
Flight info
| Callsign | N3368K |
|---|---|
| Flight time | 0h 59m |
| Altitude | 26000 |
| Route | PUSRA H741 ASVIR M320 KUA |
| Aircraft | TBM9/L-SDFGRWY/S |
Departure
| Time | 2026-04-27 13:22 |
|---|---|
| Airport | King Fahd International Airport (OEDF) |
Arrival
| Time | 2026-04-27 14:22 |
|---|---|
| Airport | Udairi Army Air Field (OKDI) |
| Time | Latitude | Longitude | Altitude | Speed | Heading |
|---|---|---|---|---|---|
| 2026-04-27 12:58 | 26.47746 | 49.81269 | 66 ft | 0 kts | 343° |
| 2026-04-27 13:13 | 26.47758 | 49.81265 | 69 ft | 6 kts | 341° |
| 2026-04-27 13:13 | 26.47806 | 49.81249 | 70 ft | 11 kts | 345° |
| 2026-04-27 13:13 | 26.47895 | 49.81223 | 70 ft | 12 kts | 346° |
| 2026-04-27 13:13 | 26.47957 | 49.81204 | 65 ft | 9 kts | 343° |
| 2026-04-27 13:14 | 26.48005 | 49.81141 | 70 ft | 15 kts | 278° |
| 2026-04-27 13:14 | 26.47996 | 49.81010 | 70 ft | 19 kts | 253° |
| 2026-04-27 13:14 | 26.47959 | 49.80863 | 66 ft | 19 kts | 254° |
| 2026-04-27 13:14 | 26.47922 | 49.80715 | 70 ft | 19 kts | 253° |
| 2026-04-27 13:15 | 26.47884 | 49.80564 | 68 ft | 21 kts | 252° |
| 2026-04-27 13:15 | 26.47845 | 49.80415 | 65 ft | 19 kts | 256° |
| 2026-04-27 13:15 | 26.47812 | 49.80272 | 70 ft | 20 kts | 254° |
| 2026-04-27 13:15 | 26.47773 | 49.80117 | 67 ft | 22 kts | 255° |
| 2026-04-27 13:16 | 26.47731 | 49.79949 | 65 ft | 23 kts | 253° |
| 2026-04-27 13:16 | 26.47688 | 49.79782 | 66 ft | 23 kts | 256° |
| 2026-04-27 13:16 | 26.47644 | 49.79605 | 65 ft | 24 kts | 253° |
| 2026-04-27 13:16 | 26.47599 | 49.79418 | 67 ft | 26 kts | 253° |
| 2026-04-27 13:17 | 26.47551 | 49.79234 | 69 ft | 23 kts | 253° |
| 2026-04-27 13:17 | 26.47514 | 49.79073 | 68 ft | 20 kts | 250° |
| 2026-04-27 13:17 | 26.47484 | 49.78925 | 71 ft | 18 kts | 284° |
| 2026-04-27 13:17 | 26.47588 | 49.78857 | 71 ft | 19 kts | 349° |
| 2026-04-27 13:18 | 26.47716 | 49.78818 | 65 ft | 19 kts | 345° |
| 2026-04-27 13:18 | 26.47847 | 49.78777 | 70 ft | 20 kts | 346° |
| 2026-04-27 13:18 | 26.47986 | 49.78737 | 70 ft | 21 kts | 345° |
| 2026-04-27 13:18 | 26.48133 | 49.78687 | 69 ft | 23 kts | 341° |
| 2026-04-27 13:19 | 26.48293 | 49.78636 | 68 ft | 25 kts | 346° |
| 2026-04-27 13:19 | 26.48462 | 49.78582 | 65 ft | 26 kts | 343° |
| 2026-04-27 13:19 | 26.48639 | 49.78531 | 69 ft | 26 kts | 346° |
| 2026-04-27 13:19 | 26.48812 | 49.78476 | 68 ft | 26 kts | 342° |
| 2026-04-27 13:20 | 26.48903 | 49.78365 | 68 ft | 20 kts | 252° |
| 2026-04-27 13:20 | 26.48867 | 49.78238 | 66 ft | 0 kts | 248° |
| 2026-04-27 13:20 | 26.48864 | 49.78230 | 67 ft | 7 kts | 242° |
| 2026-04-27 13:21 | 26.48788 | 49.78171 | 70 ft | 17 kts | 195° |
| 2026-04-27 13:21 | 26.48747 | 49.78171 | 70 ft | 0 kts | 164° |
| 2026-04-27 13:21 | 26.48745 | 49.78171 | 70 ft | 6 kts | 162° |
| 2026-04-27 13:21 | 26.48358 | 49.78295 | 64 ft | 81 kts | 165° |
| 2026-04-27 13:22 | 26.47918 | 49.78416 | 119 ft | 108 kts | 164° |
| 2026-04-27 13:22 | 26.47100 | 49.78680 | 313 ft | 138 kts | 162° |
| 2026-04-27 13:22 | 26.46059 | 49.78953 | 562 ft | 166 kts | 165° |
| 2026-04-27 13:22 | 26.44880 | 49.79327 | 803 ft | 183 kts | 162° |
| 2026-04-27 13:23 | 26.43651 | 49.79729 | 1185 ft | 185 kts | 162° |
| 2026-04-27 13:23 | 26.42428 | 49.80106 | 1763 ft | 180 kts | 162° |
| 2026-04-27 13:23 | 26.41219 | 49.80481 | 2206 ft | 184 kts | 163° |
| 2026-04-27 13:23 | 26.40076 | 49.81100 | 2594 ft | 185 kts | 137° |
| 2026-04-27 13:24 | 26.39527 | 49.82411 | 2972 ft | 195 kts | 98° |
| 2026-04-27 13:24 | 26.39779 | 49.83913 | 3347 ft | 205 kts | 65° |
| 2026-04-27 13:24 | 26.40684 | 49.85161 | 3745 ft | 209 kts | 46° |
| 2026-04-27 13:24 | 26.41677 | 49.86330 | 4132 ft | 212 kts | 49° |
| 2026-04-27 13:25 | 26.42645 | 49.87575 | 4576 ft | 212 kts | 50° |
| 2026-04-27 13:25 | 26.43610 | 49.88840 | 4959 ft | 215 kts | 50° |
| 2026-04-27 13:25 | 26.44483 | 49.89978 | 5314 ft | 216 kts | 49° |
| 2026-04-27 13:25 | 26.45486 | 49.91282 | 5757 ft | 216 kts | 49° |
| 2026-04-27 13:26 | 26.46473 | 49.92565 | 6149 ft | 219 kts | 49° |
| 2026-04-27 13:26 | 26.47462 | 49.93854 | 6527 ft | 220 kts | 49° |
| 2026-04-27 13:26 | 26.48457 | 49.95150 | 6912 ft | 221 kts | 49° |
| 2026-04-27 13:26 | 26.49461 | 49.96456 | 7283 ft | 223 kts | 49° |
| 2026-04-27 13:27 | 26.50466 | 49.97765 | 7672 ft | 223 kts | 47° |
| 2026-04-27 13:27 | 26.51656 | 49.98855 | 8031 ft | 222 kts | 26° |
| 2026-04-27 13:27 | 26.53094 | 49.99440 | 8403 ft | 219 kts | 6° |
| 2026-04-27 13:27 | 26.54602 | 49.99479 | 8801 ft | 214 kts | 348° |
| 2026-04-27 13:28 | 26.56008 | 49.98997 | 9187 ft | 210 kts | 329° |
| 2026-04-27 13:28 | 26.57194 | 49.98072 | 9589 ft | 206 kts | 313° |
| 2026-04-27 13:28 | 26.58232 | 49.96993 | 9989 ft | 205 kts | 313° |
| 2026-04-27 13:28 | 26.59294 | 49.95913 | 10326 ft | 208 kts | 313° |
| 2026-04-27 13:29 | 26.60371 | 49.94814 | 10696 ft | 208 kts | 313° |
| 2026-04-27 13:29 | 26.61440 | 49.93717 | 11047 ft | 208 kts | 313° |
| 2026-04-27 13:29 | 26.62509 | 49.92618 | 11426 ft | 208 kts | 313° |
| 2026-04-27 13:29 | 26.63578 | 49.91521 | 11794 ft | 209 kts | 313° |
| 2026-04-27 13:30 | 26.64642 | 49.90428 | 12157 ft | 210 kts | 312° |
| 2026-04-27 13:30 | 26.65731 | 49.89309 | 12526 ft | 210 kts | 312° |
| 2026-04-27 13:30 | 26.66797 | 49.88215 | 12884 ft | 211 kts | 312° |
| 2026-04-27 13:30 | 26.67878 | 49.87104 | 13249 ft | 211 kts | 312° |
| 2026-04-27 13:31 | 26.68966 | 49.85988 | 13607 ft | 212 kts | 312° |
| 2026-04-27 13:31 | 26.70057 | 49.84864 | 13919 ft | 213 kts | 312° |
| 2026-04-27 13:31 | 26.71139 | 49.83752 | 14237 ft | 214 kts | 312° |
| 2026-04-27 13:31 | 26.72231 | 49.82628 | 14537 ft | 215 kts | 312° |
| 2026-04-27 13:32 | 26.73337 | 49.81491 | 14849 ft | 215 kts | 312° |
| 2026-04-27 13:32 | 26.74446 | 49.80349 | 15169 ft | 216 kts | 312° |
| 2026-04-27 13:32 | 26.75556 | 49.79207 | 15500 ft | 217 kts | 312° |
| 2026-04-27 13:32 | 26.76654 | 49.78076 | 15810 ft | 217 kts | 312° |
| 2026-04-27 13:33 | 26.77771 | 49.76925 | 16113 ft | 218 kts | 312° |
| 2026-04-27 13:33 | 26.78893 | 49.75770 | 16425 ft | 219 kts | 312° |
| 2026-04-27 13:33 | 26.80006 | 49.74623 | 16726 ft | 220 kts | 312° |
| 2026-04-27 13:33 | 26.81137 | 49.73458 | 17060 ft | 219 kts | 312° |
| 2026-04-27 13:34 | 26.82264 | 49.72298 | 17361 ft | 220 kts | 312° |
| 2026-04-27 13:34 | 26.83392 | 49.71134 | 17665 ft | 221 kts | 311° |
| 2026-04-27 13:34 | 26.84514 | 49.69978 | 17961 ft | 222 kts | 311° |
| 2026-04-27 13:34 | 26.85656 | 49.68800 | 18233 ft | 223 kts | 311° |
| 2026-04-27 13:35 | 26.86800 | 49.67619 | 18474 ft | 224 kts | 311° |
| 2026-04-27 13:35 | 26.87948 | 49.66434 | 18718 ft | 225 kts | 311° |
| 2026-04-27 13:35 | 26.89089 | 49.65256 | 18962 ft | 226 kts | 311° |
| 2026-04-27 13:35 | 26.90244 | 49.64062 | 19209 ft | 226 kts | 311° |
| 2026-04-27 13:36 | 26.91405 | 49.62864 | 19459 ft | 227 kts | 311° |
| 2026-04-27 13:36 | 26.92574 | 49.61656 | 19712 ft | 229 kts | 311° |
| 2026-04-27 13:36 | 26.93747 | 49.60443 | 19955 ft | 230 kts | 311° |
| 2026-04-27 13:36 | 26.94913 | 49.59238 | 20197 ft | 231 kts | 310° |
| 2026-04-27 13:37 | 26.96098 | 49.58012 | 20460 ft | 232 kts | 310° |
| 2026-04-27 13:37 | 26.97290 | 49.56779 | 20712 ft | 232 kts | 310° |
| 2026-04-27 13:37 | 26.98482 | 49.55546 | 20960 ft | 233 kts | 310° |
| 2026-04-27 13:37 | 26.99664 | 49.54323 | 21198 ft | 234 kts | 310° |
| 2026-04-27 13:38 | 27.00867 | 49.53076 | 21444 ft | 235 kts | 310° |
| 2026-04-27 13:38 | 27.02071 | 49.51829 | 21663 ft | 236 kts | 310° |
| 2026-04-27 13:38 | 27.03283 | 49.50574 | 21887 ft | 238 kts | 310° |
| 2026-04-27 13:38 | 27.04502 | 49.49311 | 22135 ft | 239 kts | 309° |
| 2026-04-27 13:39 | 27.05728 | 49.48041 | 22368 ft | 239 kts | 309° |
| 2026-04-27 13:39 | 27.06936 | 49.46787 | 22593 ft | 240 kts | 309° |
| 2026-04-27 13:39 | 27.08165 | 49.45512 | 22813 ft | 241 kts | 309° |
| 2026-04-27 13:39 | 27.09402 | 49.44228 | 23027 ft | 242 kts | 309° |
| 2026-04-27 13:40 | 27.10642 | 49.42942 | 23243 ft | 243 kts | 309° |
| 2026-04-27 13:40 | 27.11887 | 49.41649 | 23437 ft | 244 kts | 309° |
| 2026-04-27 13:40 | 27.13132 | 49.40356 | 23621 ft | 244 kts | 309° |
| 2026-04-27 13:40 | 27.14379 | 49.39060 | 23813 ft | 245 kts | 309° |
| 2026-04-27 13:41 | 27.15619 | 49.37771 | 24007 ft | 245 kts | 309° |
| 2026-04-27 13:41 | 27.16871 | 49.36470 | 24212 ft | 246 kts | 308° |
| 2026-04-27 13:41 | 27.18127 | 49.35164 | 24398 ft | 246 kts | 308° |
| 2026-04-27 13:41 | 27.19387 | 49.33854 | 24586 ft | 246 kts | 308° |
| 2026-04-27 13:42 | 27.20646 | 49.32544 | 24758 ft | 247 kts | 308° |
| 2026-04-27 13:42 | 27.21928 | 49.31206 | 24771 ft | 254 kts | 308° |
| 2026-04-27 13:42 | 27.23244 | 49.29836 | 24776 ft | 260 kts | 309° |
| 2026-04-27 13:42 | 27.24584 | 49.28442 | 24780 ft | 265 kts | 309° |
| 2026-04-27 13:43 | 27.25928 | 49.27043 | 24784 ft | 268 kts | 309° |
| 2026-04-27 13:43 | 27.27240 | 49.25556 | 24789 ft | 267 kts | 305° |
| 2026-04-27 13:43 | 27.28536 | 49.24054 | 24789 ft | 268 kts | 305° |
| 2026-04-27 13:43 | 27.29842 | 49.22548 | 24789 ft | 269 kts | 305° |
| 2026-04-27 13:44 | 27.31148 | 49.21043 | 24786 ft | 269 kts | 305° |
| 2026-04-27 13:44 | 27.32453 | 49.19538 | 24786 ft | 269 kts | 305° |
| 2026-04-27 13:44 | 27.33772 | 49.18042 | 24788 ft | 271 kts | 308° |
| 2026-04-27 13:44 | 27.35289 | 49.16727 | 24788 ft | 279 kts | 316° |
| 2026-04-27 13:45 | 27.36917 | 49.15566 | 24783 ft | 280 kts | 317° |
| 2026-04-27 13:45 | 27.38554 | 49.14379 | 24781 ft | 279 kts | 317° |
| 2026-04-27 13:45 | 27.40184 | 49.13194 | 24780 ft | 279 kts | 317° |
| 2026-04-27 13:45 | 27.41821 | 49.12012 | 24779 ft | 279 kts | 317° |
| 2026-04-27 13:46 | 27.43452 | 49.10834 | 24800 ft | 279 kts | 317° |
| 2026-04-27 13:46 | 27.45088 | 49.09650 | 24783 ft | 280 kts | 317° |
| 2026-04-27 13:46 | 27.46730 | 49.08462 | 24785 ft | 280 kts | 317° |
| 2026-04-27 13:46 | 27.48370 | 49.07276 | 24777 ft | 280 kts | 316° |
| 2026-04-27 13:47 | 27.49991 | 49.06103 | 24776 ft | 280 kts | 316° |
| 2026-04-27 13:47 | 27.51635 | 49.04911 | 24774 ft | 280 kts | 316° |
| 2026-04-27 13:47 | 27.53275 | 49.03722 | 24773 ft | 280 kts | 316° |
| 2026-04-27 13:47 | 27.54918 | 49.02532 | 24769 ft | 280 kts | 316° |
| 2026-04-27 13:48 | 27.56555 | 49.01345 | 24768 ft | 280 kts | 316° |
| 2026-04-27 13:48 | 27.58199 | 49.00153 | 24767 ft | 280 kts | 316° |
| 2026-04-27 13:48 | 27.59818 | 48.98978 | 24765 ft | 280 kts | 316° |
| 2026-04-27 13:48 | 27.61392 | 48.97835 | 24769 ft | 279 kts | 316° |
| 2026-04-27 13:49 | 27.63079 | 48.96607 | 24771 ft | 280 kts | 317° |
| 2026-04-27 13:49 | 27.64727 | 48.95412 | 24770 ft | 281 kts | 317° |
| 2026-04-27 13:49 | 27.66371 | 48.94218 | 24769 ft | 282 kts | 317° |
| 2026-04-27 13:49 | 27.68033 | 48.93010 | 24769 ft | 283 kts | 317° |
| 2026-04-27 13:50 | 27.69676 | 48.91815 | 24763 ft | 284 kts | 317° |
| 2026-04-27 13:50 | 27.71343 | 48.90602 | 24766 ft | 285 kts | 317° |
| 2026-04-27 13:50 | 27.73002 | 48.89395 | 24766 ft | 287 kts | 317° |
| 2026-04-27 13:50 | 27.74693 | 48.88165 | 24766 ft | 287 kts | 317° |
| 2026-04-27 13:51 | 27.76381 | 48.86935 | 24768 ft | 288 kts | 317° |
| 2026-04-27 13:51 | 27.78056 | 48.85715 | 24767 ft | 289 kts | 317° |
| 2026-04-27 13:51 | 27.79753 | 48.84478 | 24787 ft | 290 kts | 317° |
| 2026-04-27 13:51 | 27.81448 | 48.83242 | 24782 ft | 290 kts | 317° |
| 2026-04-27 13:52 | 27.83156 | 48.81997 | 24772 ft | 290 kts | 317° |
| 2026-04-27 13:52 | 27.84853 | 48.80759 | 24773 ft | 290 kts | 317° |
| 2026-04-27 13:52 | 27.86533 | 48.79532 | 24773 ft | 290 kts | 317° |
| 2026-04-27 13:52 | 27.88230 | 48.78293 | 24774 ft | 291 kts | 317° |
| 2026-04-27 13:53 | 27.91620 | 48.75817 | 24769 ft | 291 kts | 317° |
| 2026-04-27 13:53 | 27.93321 | 48.74573 | 24768 ft | 291 kts | 317° |
| 2026-04-27 13:53 | 27.94985 | 48.73286 | 24758 ft | 286 kts | 312° |
| 2026-04-27 13:54 | 27.96515 | 48.71852 | 24759 ft | 285 kts | 311° |
| 2026-04-27 13:54 | 27.98047 | 48.70451 | 24775 ft | 285 kts | 312° |
| 2026-04-27 13:54 | 27.99598 | 48.69040 | 24772 ft | 285 kts | 311° |
| 2026-04-27 13:54 | 28.01120 | 48.67639 | 24772 ft | 284 kts | 311° |
| 2026-04-27 13:55 | 28.02657 | 48.66221 | 24766 ft | 284 kts | 311° |
| 2026-04-27 13:55 | 28.04198 | 48.64803 | 24762 ft | 284 kts | 311° |
| 2026-04-27 13:55 | 28.05736 | 48.63389 | 24761 ft | 284 kts | 311° |
| 2026-04-27 13:55 | 28.07285 | 48.61997 | 24764 ft | 287 kts | 315° |
| 2026-04-27 13:56 | 28.09014 | 48.60847 | 24776 ft | 295 kts | 324° |
| 2026-04-27 13:56 | 28.10894 | 48.59875 | 24775 ft | 297 kts | 325° |
| 2026-04-27 13:56 | 28.12773 | 48.58888 | 24773 ft | 296 kts | 324° |
| 2026-04-27 13:56 | 28.14650 | 48.57895 | 24783 ft | 296 kts | 325° |
| 2026-04-27 13:57 | 28.16502 | 48.56924 | 24769 ft | 297 kts | 325° |
| 2026-04-27 13:57 | 28.18386 | 48.55939 | 24765 ft | 297 kts | 325° |
| 2026-04-27 13:57 | 28.20269 | 48.54952 | 24764 ft | 297 kts | 325° |
| 2026-04-27 13:57 | 28.22117 | 48.53981 | 24762 ft | 297 kts | 325° |
| 2026-04-27 13:58 | 28.24002 | 48.52990 | 24764 ft | 297 kts | 325° |
| 2026-04-27 13:58 | 28.25871 | 48.52009 | 24762 ft | 297 kts | 325° |
| 2026-04-27 13:58 | 28.27745 | 48.51024 | 24761 ft | 296 kts | 325° |
| 2026-04-27 13:58 | 28.29623 | 48.50037 | 24761 ft | 296 kts | 325° |
| 2026-04-27 13:59 | 28.31501 | 48.49049 | 24755 ft | 297 kts | 325° |
| 2026-04-27 13:59 | 28.33352 | 48.48075 | 24776 ft | 297 kts | 325° |
| 2026-04-27 13:59 | 28.35237 | 48.47082 | 24765 ft | 297 kts | 325° |
| 2026-04-27 13:59 | 28.37103 | 48.46101 | 24757 ft | 297 kts | 325° |
| 2026-04-27 14:00 | 28.38987 | 48.45108 | 24762 ft | 297 kts | 325° |
| 2026-04-27 14:00 | 28.40870 | 48.44116 | 24757 ft | 297 kts | 325° |
| 2026-04-27 14:00 | 28.42730 | 48.43135 | 24753 ft | 297 kts | 325° |
| 2026-04-27 14:00 | 28.44608 | 48.42145 | 24752 ft | 297 kts | 325° |
| 2026-04-27 14:01 | 28.46492 | 48.41151 | 24751 ft | 297 kts | 325° |
| 2026-04-27 14:01 | 28.48376 | 48.40156 | 24753 ft | 297 kts | 325° |
| 2026-04-27 14:01 | 28.50233 | 48.39176 | 24752 ft | 297 kts | 325° |
| 2026-04-27 14:01 | 28.52106 | 48.38185 | 24770 ft | 298 kts | 326° |
| 2026-04-27 14:02 | 28.53986 | 48.37187 | 24765 ft | 297 kts | 325° |
| 2026-04-27 14:02 | 28.55826 | 48.36117 | 24762 ft | 297 kts | 323° |
| 2026-04-27 14:02 | 28.57668 | 48.35036 | 24761 ft | 297 kts | 323° |
| 2026-04-27 14:02 | 28.59500 | 48.33967 | 24760 ft | 297 kts | 323° |
| 2026-04-27 14:03 | 28.61346 | 48.32892 | 24754 ft | 297 kts | 323° |
| 2026-04-27 14:03 | 28.63195 | 48.31813 | 24750 ft | 297 kts | 323° |
| 2026-04-27 14:03 | 28.65042 | 48.30732 | 24753 ft | 298 kts | 323° |
| 2026-04-27 14:03 | 28.66864 | 48.29666 | 24752 ft | 298 kts | 323° |
| 2026-04-27 14:04 | 28.68724 | 48.28578 | 24749 ft | 298 kts | 323° |
| 2026-04-27 14:04 | 28.70568 | 48.27501 | 24770 ft | 298 kts | 324° |
| 2026-04-27 14:04 | 28.72394 | 48.26431 | 24769 ft | 298 kts | 324° |
| 2026-04-27 14:04 | 28.74241 | 48.25347 | 24767 ft | 298 kts | 324° |
| 2026-04-27 14:05 | 28.76096 | 48.24260 | 24735 ft | 299 kts | 324° |
| 2026-04-27 14:05 | 28.77975 | 48.23158 | 24430 ft | 309 kts | 324° |
| 2026-04-27 14:05 | 28.79902 | 48.22027 | 24024 ft | 320 kts | 325° |
| 2026-04-27 14:05 | 28.81917 | 48.20850 | 23603 ft | 328 kts | 326° |
| 2026-04-27 14:06 | 28.83959 | 48.19662 | 23141 ft | 330 kts | 326° |
| 2026-04-27 14:06 | 28.85989 | 48.18470 | 22689 ft | 330 kts | 326° |
| 2026-04-27 14:06 | 28.87348 | 48.17669 | 22397 ft | 331 kts | 326° |
| 2026-04-27 14:06 | 28.89401 | 48.16462 | 21958 ft | 331 kts | 327° |
| 2026-04-27 14:07 | 28.91469 | 48.15248 | 21515 ft | 332 kts | 327° |
| 2026-04-27 14:07 | 28.93499 | 48.14056 | 21077 ft | 333 kts | 327° |
| 2026-04-27 14:07 | 28.95573 | 48.12835 | 20633 ft | 334 kts | 327° |
| 2026-04-27 14:07 | 28.97649 | 48.11615 | 20192 ft | 334 kts | 327° |
| 2026-04-27 14:08 | 28.99687 | 48.10414 | 19756 ft | 333 kts | 327° |
| 2026-04-27 14:08 | 29.01747 | 48.09197 | 19317 ft | 333 kts | 328° |
| 2026-04-27 14:08 | 29.03807 | 48.07982 | 18875 ft | 332 kts | 328° |
| 2026-04-27 14:08 | 29.05869 | 48.06769 | 18434 ft | 332 kts | 328° |
| 2026-04-27 14:09 | 29.07923 | 48.05556 | 17992 ft | 332 kts | 328° |
| 2026-04-27 14:09 | 29.09953 | 48.04355 | 17523 ft | 330 kts | 328° |
| 2026-04-27 14:09 | 29.12002 | 48.03148 | 17082 ft | 328 kts | 328° |
| 2026-04-27 14:09 | 29.14024 | 48.01954 | 16646 ft | 326 kts | 328° |
| 2026-04-27 14:10 | 29.16015 | 48.00778 | 16223 ft | 324 kts | 328° |
| 2026-04-27 14:10 | 29.18028 | 47.99587 | 15794 ft | 323 kts | 328° |
| 2026-04-27 14:10 | 29.20020 | 47.98406 | 15368 ft | 322 kts | 328° |
| 2026-04-27 14:10 | 29.22013 | 47.97228 | 14943 ft | 320 kts | 328° |
| 2026-04-27 14:11 | 29.23966 | 47.96071 | 14528 ft | 319 kts | 328° |
| 2026-04-27 14:11 | 29.25804 | 47.94685 | 14093 ft | 314 kts | 316° |
| 2026-04-27 14:11 | 29.27456 | 47.93053 | 13691 ft | 312 kts | 316° |
| 2026-04-27 14:11 | 29.29141 | 47.91471 | 13255 ft | 311 kts | 318° |
| 2026-04-27 14:12 | 29.30798 | 47.89912 | 12839 ft | 309 kts | 317° |
| 2026-04-27 14:12 | 29.32440 | 47.88329 | 12441 ft | 308 kts | 317° |
| 2026-04-27 14:12 | 29.34085 | 47.86747 | 12134 ft | 304 kts | 317° |
| 2026-04-27 14:12 | 29.35683 | 47.85222 | 11872 ft | 301 kts | 317° |
| 2026-04-27 14:13 | 29.37300 | 47.83674 | 11484 ft | 302 kts | 317° |
| 2026-04-27 14:13 | 29.38910 | 47.82132 | 11107 ft | 301 kts | 318° |
| 2026-04-27 14:13 | 29.40515 | 47.80592 | 10703 ft | 300 kts | 318° |
| 2026-04-27 14:13 | 29.42131 | 47.79058 | 10307 ft | 300 kts | 317° |
| 2026-04-27 14:14 | 29.43714 | 47.77527 | 9909 ft | 301 kts | 316° |
| 2026-04-27 14:14 | 29.45317 | 47.75978 | 9498 ft | 301 kts | 317° |
| 2026-04-27 14:14 | 29.46925 | 47.74446 | 9096 ft | 300 kts | 318° |
| 2026-04-27 14:14 | 29.48529 | 47.72909 | 8696 ft | 299 kts | 316° |
| 2026-04-27 14:15 | 29.50122 | 47.71372 | 8302 ft | 296 kts | 316° |
| 2026-04-27 14:15 | 29.51692 | 47.69862 | 7918 ft | 294 kts | 318° |
| 2026-04-27 14:15 | 29.53243 | 47.68376 | 7547 ft | 293 kts | 317° |
| 2026-04-27 14:15 | 29.54806 | 47.66870 | 7156 ft | 292 kts | 319° |
| 2026-04-27 14:16 | 29.56360 | 47.65370 | 6771 ft | 290 kts | 319° |
| 2026-04-27 14:16 | 29.57906 | 47.63884 | 6388 ft | 289 kts | 319° |
| 2026-04-27 14:16 | 29.59427 | 47.62423 | 6006 ft | 288 kts | 318° |
| 2026-04-27 14:16 | 29.60967 | 47.60937 | 5618 ft | 288 kts | 317° |
| 2026-04-27 14:17 | 29.62503 | 47.59453 | 5234 ft | 288 kts | 318° |
| 2026-04-27 14:17 | 29.64049 | 47.57968 | 4849 ft | 290 kts | 317° |
| 2026-04-27 14:17 | 29.65576 | 47.56489 | 4474 ft | 290 kts | 317° |
| 2026-04-27 14:17 | 29.67123 | 47.54996 | 4084 ft | 290 kts | 319° |
| 2026-04-27 14:18 | 29.68669 | 47.53506 | 3700 ft | 286 kts | 319° |
| 2026-04-27 14:18 | 29.70175 | 47.52051 | 3324 ft | 278 kts | 317° |
| 2026-04-27 14:18 | 29.71659 | 47.50623 | 2953 ft | 275 kts | 317° |
| 2026-04-27 14:18 | 29.73099 | 47.49217 | 2592 ft | 274 kts | 317° |
| 2026-04-27 14:19 | 29.74543 | 47.47808 | 2229 ft | 267 kts | 318° |
| 2026-04-27 14:19 | 29.75851 | 47.46447 | 2012 ft | 240 kts | 307° |
| 2026-04-27 14:19 | 29.76469 | 47.44820 | 1743 ft | 211 kts | 274° |
| 2026-04-27 14:19 | 29.76196 | 47.43292 | 1590 ft | 187 kts | 234° |
| 2026-04-27 14:20 | 29.75288 | 47.42373 | 1269 ft | 149 kts | 195° |
| 2026-04-27 14:20 | 29.74507 | 47.42494 | 1171 ft | 99 kts | 139° |
| 2026-04-27 14:20 | 29.74044 | 47.43034 | 1109 ft | 97 kts | 141° |
| 2026-04-27 14:20 | 29.73485 | 47.43453 | 1023 ft | 97 kts | 157° |
| 2026-04-27 14:21 | 29.72795 | 47.43562 | 915 ft | 103 kts | 176° |
| 2026-04-27 14:21 | 29.72064 | 47.43599 | 795 ft | 108 kts | 176° |
| 2026-04-27 14:21 | 29.71293 | 47.43606 | 646 ft | 110 kts | 176° |
| 2026-04-27 14:21 | 29.70544 | 47.43602 | 503 ft | 103 kts | 176° |
| 2026-04-27 14:22 | 29.69909 | 47.43598 | 430 ft | 77 kts | 179° |
| 2026-04-27 14:22 | 29.69569 | 47.43594 | 431 ft | 21 kts | 182° |
| 2026-04-27 14:22 | 29.69431 | 47.43585 | 421 ft | 16 kts | 199° |
| 2026-04-27 14:22 | 29.69404 | 47.43474 | 430 ft | 16 kts | 268° |
| 2026-04-27 14:23 | 29.69373 | 47.43388 | 430 ft | 2 kts | 263° |